createdAt,value
2022-08-17T00:00:34.672Z,20.58
2022-08-17T00:01:27.701Z,20.57
2022-08-17T00:02:26.167Z,20.56
2022-08-17T00:03:21.084Z,20.55
2022-08-17T00:04:11.837Z,20.56
2022-08-17T00:04:59.007Z,20.55
2022-08-17T00:05:51.481Z,20.57
2022-08-17T00:06:38.031Z,20.56
2022-08-17T00:07:24.480Z,20.56
2022-08-17T00:08:14.096Z,20.57
2022-08-17T00:09:04.037Z,20.56
2022-08-17T00:09:50.520Z,20.56
2022-08-17T00:10:37.706Z,20.57
2022-08-17T00:11:31.673Z,20.59
2022-08-17T00:12:41.839Z,20.58
2022-08-17T00:13:33.319Z,20.61
2022-08-17T00:14:20.087Z,20.62
2022-08-17T00:15:10.437Z,20.64
2022-08-17T00:16:04.543Z,20.63
2022-08-17T00:16:56.876Z,20.66
2022-08-17T00:17:47.409Z,20.66
2022-08-17T00:19:01.957Z,20.67
2022-08-17T00:19:41.721Z,20.67
2022-08-17T00:20:33.462Z,20.68
2022-08-17T00:21:24.010Z,20.63
2022-08-17T00:22:33.853Z,20.63
2022-08-17T00:23:18.733Z,20.64
2022-08-17T00:24:05.548Z,20.61
2022-08-17T00:24:52.057Z,20.62
2022-08-17T00:25:43.878Z,20.64
2022-08-17T00:26:34.891Z,20.64
2022-08-17T00:27:31.851Z,20.62
2022-08-17T00:28:21.056Z,20.62
2022-08-17T00:29:08.616Z,20.62
2022-08-17T00:29:55.042Z,20.63
2022-08-17T00:30:48.495Z,20.60
2022-08-17T00:31:37.939Z,20.59
2022-08-17T00:33:12.481Z,20.60
2022-08-17T00:33:31.863Z,20.60
2022-08-17T00:34:18.881Z,20.56
2022-08-17T00:35:08.617Z,20.56
2022-08-17T00:35:58.114Z,20.57
2022-08-17T00:36:44.847Z,20.58
2022-08-17T00:37:31.297Z,20.56
2022-08-17T00:38:18.611Z,20.57
2022-08-17T00:39:05.475Z,20.55
2022-08-17T00:39:52.292Z,20.55
2022-08-17T00:40:48.095Z,20.53
2022-08-17T00:41:35.725Z,20.55
2022-08-17T00:42:22.241Z,20.56
2022-08-17T00:43:29.950Z,20.57
2022-08-17T00:44:16.872Z,20.57
2022-08-17T00:45:09.502Z,20.59
2022-08-17T00:45:56.640Z,20.57
2022-08-17T00:46:44.487Z,20.58
2022-08-17T00:47:31.070Z,20.57
2022-08-17T00:48:29.340Z,20.56
2022-08-17T00:49:19.556Z,20.53
2022-08-17T00:50:09.919Z,20.57
2022-08-17T00:51:05.401Z,20.57
2022-08-17T00:52:11.897Z,20.58
2022-08-17T00:52:58.869Z,20.58
2022-08-17T00:53:54.001Z,20.58
2022-08-17T00:54:44.649Z,20.57
2022-08-17T00:55:32.774Z,20.59
2022-08-17T00:56:28.343Z,20.58
2022-08-17T00:57:24.411Z,20.57
2022-08-17T00:58:11.098Z,20.57
2022-08-17T00:58:58.674Z,20.54
2022-08-17T01:00:03.670Z,20.52
2022-08-17T01:00:51.813Z,20.51
2022-08-17T01:01:39.795Z,20.46
2022-08-17T01:02:29.454Z,20.45
2022-08-17T01:03:25.856Z,20.43
2022-08-17T01:04:13.698Z,20.40
2022-08-17T01:05:01.515Z,20.39
2022-08-17T01:05:53.142Z,20.35
2022-08-17T01:06:42.761Z,20.34
2022-08-17T01:07:29.629Z,20.30
2022-08-17T01:08:23.293Z,20.26
2022-08-17T01:09:10.324Z,20.24
2022-08-17T01:09:57.343Z,20.18
2022-08-17T01:10:59.735Z,20.17
2022-08-17T01:11:52.537Z,20.16
2022-08-17T01:12:39.285Z,20.15
2022-08-17T01:13:27.679Z,20.13
2022-08-17T01:14:14.486Z,20.09
2022-08-17T01:15:00.998Z,20.08
2022-08-17T01:16:00.297Z,20.05
2022-08-17T01:16:49.348Z,20.00
2022-08-17T01:17:35.996Z,20.03
2022-08-17T01:18:22.939Z,20.01
2022-08-17T01:19:20.111Z,19.98
2022-08-17T01:20:07.048Z,19.97
2022-08-17T01:20:56.291Z,19.91
2022-08-17T01:21:59.986Z,19.87
2022-08-17T01:22:46.692Z,19.82
2022-08-17T01:23:33.726Z,19.82
2022-08-17T01:24:20.362Z,19.79
2022-08-17T01:25:09.026Z,19.79
2022-08-17T01:26:02.204Z,19.76
2022-08-17T01:26:49.121Z,19.72
2022-08-17T01:27:38.259Z,19.77
2022-08-17T01:28:52.168Z,19.72
2022-08-17T01:29:39.151Z,19.74
2022-08-17T01:30:57.852Z,19.73
2022-08-17T01:31:42.529Z,19.68
2022-08-17T01:32:30.335Z,19.66
2022-08-17T01:33:17.007Z,19.65
2022-08-17T01:34:08.426Z,19.61
2022-08-17T01:34:55.351Z,19.60
2022-08-17T01:35:42.206Z,19.56
2022-08-17T01:36:28.889Z,19.54
2022-08-17T01:37:16.865Z,19.66
2022-08-17T01:38:03.792Z,19.68
2022-08-17T01:38:50.389Z,19.61
2022-08-17T01:39:48.022Z,19.56
2022-08-17T01:40:38.993Z,19.55
2022-08-17T01:41:26.946Z,19.53
2022-08-17T01:42:34.953Z,19.53
2022-08-17T01:43:28.584Z,19.50
2022-08-17T01:44:16.744Z,19.52
2022-08-17T01:45:12.446Z,19.51
2022-08-17T01:46:04.020Z,19.51
2022-08-17T01:46:50.754Z,19.63
2022-08-17T01:47:38.728Z,19.70
2022-08-17T01:48:35.298Z,19.55
2022-08-17T01:49:21.773Z,19.52
2022-08-17T01:50:15.665Z,19.55
2022-08-17T01:51:02.483Z,19.54
2022-08-17T01:51:49.434Z,19.56
2022-08-17T01:52:36.143Z,19.58
2022-08-17T01:53:30.101Z,19.53
2022-08-17T01:54:19.927Z,19.61
2022-08-17T01:55:07.220Z,19.58
2022-08-17T01:56:01.972Z,19.55
2022-08-17T01:56:51.411Z,19.56
2022-08-17T01:57:37.981Z,19.56
2022-08-17T01:58:24.474Z,19.55
2022-08-17T01:59:12.842Z,19.55
2022-08-17T01:59:59.758Z,19.53
2022-08-17T02:01:01.276Z,19.50
2022-08-17T02:01:48.932Z,19.52
2022-08-17T02:02:35.457Z,19.47
2022-08-17T02:03:24.210Z,19.48
2022-08-17T02:04:11.603Z,19.47
2022-08-17T02:04:58.238Z,19.49
2022-08-17T02:05:45.344Z,19.47
2022-08-17T02:06:47.083Z,19.47
2022-08-17T02:08:00.402Z,19.46
2022-08-17T02:09:02.724Z,19.48
2022-08-17T02:09:52.716Z,19.46
2022-08-17T02:10:39.437Z,19.44
2022-08-17T02:11:36.053Z,19.52
2022-08-17T02:12:38.080Z,19.50
2022-08-17T02:13:29.583Z,19.53
2022-08-17T02:14:16.110Z,19.49
2022-08-17T02:15:02.632Z,19.44
2022-08-17T02:15:49.062Z,19.46
2022-08-17T02:16:38.366Z,19.46
2022-08-17T02:17:24.869Z,19.42
2022-08-17T02:18:12.461Z,19.40
2022-08-17T02:18:59.679Z,19.39
2022-08-17T02:19:46.165Z,19.36
2022-08-17T02:20:36.424Z,19.34
2022-08-17T02:21:29.183Z,19.32
2022-08-17T02:22:18.212Z,19.30
2022-08-17T02:23:08.819Z,19.28
2022-08-17T02:23:56.315Z,19.25
2022-08-17T02:25:00.414Z,19.24
2022-08-17T02:25:50.027Z,19.23
2022-08-17T02:26:37.215Z,19.23
2022-08-17T02:27:23.861Z,19.22
2022-08-17T02:28:11.187Z,19.20
2022-08-17T02:28:57.793Z,19.24
2022-08-17T02:29:44.345Z,19.20
2022-08-17T02:31:01.866Z,19.18
2022-08-17T02:31:37.810Z,19.15
2022-08-17T02:32:28.143Z,19.14
2022-08-17T02:33:15.256Z,19.14
2022-08-17T02:34:03.822Z,19.14
2022-08-17T02:34:54.500Z,19.13
2022-08-17T02:35:42.865Z,19.12
2022-08-17T02:36:29.365Z,19.11
2022-08-17T02:37:17.774Z,19.09
2022-08-17T02:38:06.407Z,19.07
2022-08-17T02:38:53.172Z,18.97
2022-08-17T02:39:39.799Z,18.98
2022-08-17T02:40:35.794Z,18.93
2022-08-17T02:41:23.245Z,18.93
2022-08-17T02:42:09.714Z,18.87
2022-08-17T02:42:56.965Z,18.83
2022-08-17T02:43:43.501Z,18.88
2022-08-17T02:44:39.045Z,18.87
2022-08-17T02:45:27.042Z,18.85
2022-08-17T02:46:13.561Z,18.84
2022-08-17T02:47:00.535Z,18.83
2022-08-17T02:47:47.282Z,18.80
2022-08-17T02:48:33.750Z,18.78
2022-08-17T02:49:20.251Z,18.78
2022-08-17T02:50:09.331Z,18.75
2022-08-17T02:50:55.794Z,18.73
2022-08-17T02:51:42.266Z,18.72
2022-08-17T02:52:42.945Z,18.68
2022-08-17T02:53:35.623Z,18.68
2022-08-17T02:54:39.437Z,18.70
2022-08-17T02:55:34.751Z,18.69
2022-08-17T02:56:21.590Z,18.66
2022-08-17T02:57:08.090Z,18.66
2022-08-17T02:57:55.631Z,18.68
2022-08-17T02:58:42.378Z,18.66
2022-08-17T02:59:30.019Z,18.65
2022-08-17T03:00:24.652Z,18.65
2022-08-17T03:01:11.308Z,18.62
2022-08-17T03:01:57.861Z,18.62
2022-08-17T03:02:45.529Z,18.61
2022-08-17T03:03:32.907Z,18.57
2022-08-17T03:04:20.685Z,18.55
2022-08-17T03:05:08.921Z,18.55
2022-08-17T03:05:55.363Z,18.55
2022-08-17T03:06:42.614Z,18.53
2022-08-17T03:07:30.444Z,18.56
2022-08-17T03:08:17.980Z,18.54
2022-08-17T03:09:04.724Z,18.54
2022-08-17T03:09:53.891Z,18.53
2022-08-17T03:10:41.275Z,18.53
2022-08-17T03:11:27.860Z,18.51
2022-08-17T03:12:15.016Z,18.47
2022-08-17T03:13:01.628Z,18.49
2022-08-17T03:13:48.388Z,18.47
2022-08-17T03:14:41.492Z,18.42
2022-08-17T03:15:31.713Z,18.42
2022-08-17T03:16:19.361Z,18.36
2022-08-17T03:17:06.738Z,18.38
2022-08-17T03:17:55.008Z,18.36
2022-08-17T03:18:41.492Z,18.34
2022-08-17T03:19:27.966Z,18.31
2022-08-17T03:20:16.187Z,18.34
2022-08-17T03:21:04.448Z,18.33
2022-08-17T03:21:55.059Z,18.33
2022-08-17T03:22:48.066Z,18.32
2022-08-17T03:23:42.053Z,18.33
2022-08-17T03:24:29.127Z,18.24
2022-08-17T03:25:21.370Z,18.20
2022-08-17T03:26:12.292Z,18.18
2022-08-17T03:27:02.208Z,18.21
2022-08-17T03:27:48.730Z,18.16
2022-08-17T03:28:38.920Z,18.15
2022-08-17T03:29:25.403Z,18.14
2022-08-17T03:30:13.497Z,18.17
2022-08-17T03:31:00.008Z,18.17
2022-08-17T03:31:46.813Z,18.14
2022-08-17T03:32:44.436Z,18.12
2022-08-17T03:33:31.368Z,18.12
2022-08-17T03:34:18.185Z,18.13
2022-08-17T03:35:05.129Z,18.12
2022-08-17T03:35:51.941Z,18.12
2022-08-17T03:36:38.414Z,18.12
2022-08-17T03:37:24.930Z,18.11
2022-08-17T03:38:13.360Z,18.16
2022-08-17T03:39:02.423Z,18.17
2022-08-17T03:39:49.314Z,18.17
2022-08-17T03:40:57.288Z,18.15
2022-08-17T03:41:43.379Z,18.26
2022-08-17T03:42:31.792Z,18.22
2022-08-17T03:43:22.380Z,18.16
2022-08-17T03:44:09.018Z,18.15
2022-08-17T03:44:59.370Z,18.15
2022-08-17T03:46:04.943Z,18.15
2022-08-17T03:47:11.070Z,18.14
2022-08-17T03:48:16.019Z,18.08
2022-08-17T03:49:24.266Z,18.05
2022-08-17T03:50:38.408Z,18.05
2022-08-17T03:51:43.550Z,17.99
2022-08-17T03:52:51.895Z,17.98
2022-08-17T03:54:08.402Z,17.98
2022-08-17T03:55:14.624Z,17.96
2022-08-17T03:56:22.290Z,17.93
2022-08-17T03:57:11.633Z,17.93
2022-08-17T03:57:58.120Z,17.93
2022-08-17T03:58:45.427Z,17.94
2022-08-17T03:59:33.594Z,17.96
2022-08-17T04:00:20.056Z,17.93
2022-08-17T04:01:07.158Z,17.99
2022-08-17T04:01:58.917Z,18.00
2022-08-17T04:02:45.409Z,17.99
2022-08-17T04:03:31.988Z,18.03
2022-08-17T04:04:19.908Z,18.05
2022-08-17T04:05:15.162Z,18.06
2022-08-17T04:06:02.188Z,18.08
2022-08-17T04:06:48.687Z,18.07
2022-08-17T04:07:35.285Z,18.10
2022-08-17T04:08:21.758Z,18.12
2022-08-17T04:09:09.562Z,18.11
2022-08-17T04:09:57.799Z,18.16
2022-08-17T04:10:45.253Z,18.18
2022-08-17T04:11:33.196Z,18.18
2022-08-17T04:12:22.699Z,18.23
2022-08-17T04:13:09.860Z,18.23
2022-08-17T04:13:56.744Z,18.23
2022-08-17T04:14:53.124Z,18.26
2022-08-17T04:15:41.900Z,18.30
2022-08-17T04:16:29.360Z,18.30
2022-08-17T04:17:15.878Z,18.32
2022-08-17T04:18:03.014Z,18.35
2022-08-17T04:18:51.105Z,18.39
2022-08-17T04:19:37.528Z,18.39
2022-08-17T04:20:25.153Z,18.41
2022-08-17T04:21:11.712Z,18.44
2022-08-17T04:21:58.373Z,18.45
2022-08-17T04:23:09.416Z,18.47
2022-08-17T04:23:58.798Z,18.48
2022-08-17T04:24:45.250Z,18.49
2022-08-17T04:25:34.802Z,18.48
2022-08-17T04:26:54.203Z,18.55
2022-08-17T04:27:29.267Z,18.55
2022-08-17T04:28:17.390Z,18.56
2022-08-17T04:29:03.986Z,18.60
2022-08-17T04:29:54.600Z,18.61
2022-08-17T04:30:45.079Z,18.62
2022-08-17T04:31:33.161Z,18.65
2022-08-17T04:32:23.090Z,18.65
2022-08-17T04:33:28.763Z,18.63
2022-08-17T04:34:16.734Z,18.67
2022-08-17T04:35:06.709Z,18.66
2022-08-17T04:35:58.143Z,18.66
2022-08-17T04:36:50.348Z,18.69
2022-08-17T04:37:37.175Z,18.71
2022-08-17T04:38:29.253Z,18.72
2022-08-17T04:39:15.870Z,18.74
2022-08-17T04:40:21.337Z,18.77
2022-08-17T04:41:27.549Z,18.78
2022-08-17T04:42:17.359Z,18.82
2022-08-17T04:43:08.449Z,18.86
2022-08-17T04:43:58.123Z,18.87
2022-08-17T04:44:44.578Z,18.91
2022-08-17T04:45:32.317Z,18.88
2022-08-17T04:46:22.372Z,18.93
2022-08-17T04:47:10.556Z,18.91
2022-08-17T04:48:00.628Z,18.95
2022-08-17T04:48:50.912Z,18.95
2022-08-17T04:49:37.935Z,18.95
2022-08-17T04:50:24.993Z,18.97
2022-08-17T04:51:16.704Z,18.98
2022-08-17T04:52:04.680Z,18.97
2022-08-17T04:52:51.423Z,19.07
2022-08-17T04:53:39.918Z,19.08
2022-08-17T04:54:26.982Z,19.09
2022-08-17T04:55:15.329Z,19.10
2022-08-17T04:56:02.004Z,19.13
2022-08-17T04:56:49.196Z,19.13
2022-08-17T04:57:39.479Z,19.15
2022-08-17T04:58:28.547Z,19.17
2022-08-17T04:59:22.506Z,19.21
2022-08-17T05:00:10.654Z,19.23
2022-08-17T05:00:57.207Z,19.25
2022-08-17T05:01:47.393Z,19.32
2022-08-17T05:02:34.361Z,19.34
2022-08-17T05:03:21.059Z,19.33
2022-08-17T05:04:33.537Z,19.35
2022-08-17T05:05:36.275Z,19.41
2022-08-17T05:06:23.678Z,19.41
2022-08-17T05:07:10.941Z,19.39
2022-08-17T05:08:00.043Z,19.40
2022-08-17T05:08:46.528Z,19.43
2022-08-17T05:09:33.099Z,19.49
2022-08-17T05:10:21.129Z,19.51
2022-08-17T05:11:07.709Z,19.55
2022-08-17T05:11:55.346Z,19.56
2022-08-17T05:12:43.391Z,19.58
2022-08-17T05:13:29.966Z,19.60
2022-08-17T05:14:17.780Z,19.63
2022-08-17T05:15:04.888Z,19.68
2022-08-17T05:15:55.344Z,19.70
2022-08-17T05:16:42.004Z,19.73
2022-08-17T05:17:28.454Z,19.74
2022-08-17T05:18:16.585Z,19.77
2022-08-17T05:19:03.789Z,19.79
2022-08-17T05:19:52.085Z,19.80
2022-08-17T05:20:40.612Z,19.84
2022-08-17T05:21:27.555Z,19.85
2022-08-17T05:22:14.395Z,19.87
2022-08-17T05:23:07.016Z,19.91
2022-08-17T05:23:54.850Z,19.95
2022-08-17T05:24:53.330Z,19.99
2022-08-17T05:25:47.698Z,20.03
2022-08-17T05:26:34.442Z,20.03
2022-08-17T05:27:23.555Z,20.03
2022-08-17T05:28:11.537Z,20.06
2022-08-17T05:29:00.436Z,20.07
2022-08-17T05:29:49.365Z,20.11
2022-08-17T05:30:37.963Z,20.15
2022-08-17T05:31:24.769Z,20.17
2022-08-17T05:32:38.496Z,20.18
2022-08-17T05:33:26.627Z,20.17
2022-08-17T05:34:13.102Z,20.17
2022-08-17T05:35:00.328Z,20.20
2022-08-17T05:35:49.872Z,20.22
2022-08-17T05:36:44.050Z,20.19
2022-08-17T05:37:31.148Z,20.20
2022-08-17T05:38:21.026Z,20.19
2022-08-17T05:39:07.673Z,20.19
2022-08-17T05:39:54.313Z,20.13
2022-08-17T05:40:41.129Z,20.20
2022-08-17T05:41:27.568Z,20.21
2022-08-17T05:42:18.977Z,20.21
2022-08-17T05:43:16.955Z,20.20
2022-08-17T05:44:05.372Z,20.22
2022-08-17T05:44:52.250Z,20.24
2022-08-17T05:45:55.521Z,20.24
2022-08-17T05:46:49.265Z,20.24
2022-08-17T05:47:39.160Z,20.26
2022-08-17T05:48:35.464Z,20.27
2022-08-17T05:49:28.689Z,20.28
2022-08-17T05:50:29.877Z,20.30
2022-08-17T05:51:53.130Z,20.34
2022-08-17T05:53:17.220Z,20.37
2022-08-17T05:54:06.640Z,20.41
2022-08-17T05:55:13.702Z,20.44
2022-08-17T05:56:27.977Z,20.48
2022-08-17T05:57:36.040Z,20.53
2022-08-17T05:58:55.480Z,20.51
2022-08-17T05:59:57.458Z,20.57
2022-08-17T06:01:03.852Z,20.60
2022-08-17T06:02:05.432Z,20.63
2022-08-17T06:03:15.023Z,20.68
2022-08-17T06:04:16.824Z,20.73
2022-08-17T06:05:30.930Z,20.79
2022-08-17T06:06:36.604Z,20.87
2022-08-17T06:07:39.552Z,20.89
2022-08-17T06:08:39.653Z,20.96
2022-08-17T06:09:40.107Z,21.01
2022-08-17T06:10:35.437Z,21.05
2022-08-17T06:11:58.729Z,21.14
2022-08-17T06:13:00.373Z,21.18
2022-08-17T06:14:00.802Z,21.24
2022-08-17T06:15:07.359Z,21.33
2022-08-17T06:16:33.247Z,21.40
2022-08-17T06:17:22.120Z,21.50
2022-08-17T06:18:14.807Z,21.61
2022-08-17T06:19:39.126Z,21.68
2022-08-17T06:20:32.965Z,21.72
2022-08-17T06:21:23.770Z,21.74
2022-08-17T06:22:22.022Z,21.87
2022-08-17T06:23:18.182Z,21.97
2022-08-17T06:24:30.091Z,21.99
2022-08-17T06:25:34.734Z,22.12
2022-08-17T06:26:37.249Z,22.21
2022-08-17T06:28:02.914Z,22.24
2022-08-17T06:29:18.718Z,22.29
2022-08-17T06:30:17.629Z,22.40
2022-08-17T06:31:31.300Z,22.57
2022-08-17T06:32:18.765Z,22.59
2022-08-17T06:33:16.996Z,22.60
2022-08-17T06:34:09.151Z,22.63
2022-08-17T06:34:57.413Z,22.70
2022-08-17T06:36:16.069Z,22.75
2022-08-17T06:37:18.872Z,22.81
2022-08-17T06:38:37.540Z,22.84
2022-08-17T06:39:48.166Z,22.88
2022-08-17T06:40:49.707Z,22.83
2022-08-17T06:41:44.914Z,22.89
2022-08-17T06:43:06.429Z,22.92
2022-08-17T06:44:12.649Z,22.98
2022-08-17T06:45:34.825Z,22.95
2022-08-17T06:46:46.215Z,22.96
2022-08-17T06:47:41.680Z,23.02
2022-08-17T06:48:40.167Z,23.21
2022-08-17T06:49:42.208Z,23.31
2022-08-17T06:50:30.148Z,23.37
2022-08-17T06:51:30.021Z,23.38
2022-08-17T06:52:56.058Z,23.51
2022-08-17T06:53:45.426Z,23.65
2022-08-17T06:54:59.426Z,23.82
2022-08-17T06:56:12.773Z,24.00
2022-08-17T06:57:14.797Z,23.94
2022-08-17T06:58:16.313Z,24.09
2022-08-17T06:59:08.108Z,24.24
2022-08-17T07:00:01.847Z,24.28
2022-08-17T07:00:58.708Z,24.40
2022-08-17T07:01:50.066Z,24.56
2022-08-17T07:03:02.377Z,24.42
2022-08-17T07:03:59.368Z,24.40
2022-08-17T07:04:52.466Z,24.36
2022-08-17T07:05:47.938Z,24.57
2022-08-17T07:06:49.276Z,24.59
2022-08-17T07:07:58.463Z,24.53
2022-08-17T07:09:07.378Z,24.37
2022-08-17T07:09:59.781Z,24.34
2022-08-17T07:10:53.714Z,24.25
2022-08-17T07:11:54.480Z,24.29
2022-08-17T07:12:45.634Z,24.26
2022-08-17T07:13:53.388Z,24.30
2022-08-17T07:15:07.726Z,24.43
2022-08-17T07:16:07.503Z,24.30
2022-08-17T07:16:58.006Z,24.31
2022-08-17T07:17:48.358Z,24.33
2022-08-17T07:18:35.150Z,24.30
2022-08-17T07:19:26.289Z,24.30
2022-08-17T07:20:17.882Z,24.46
2022-08-17T07:21:31.653Z,24.37
2022-08-17T07:22:50.393Z,24.36
2022-08-17T07:24:02.489Z,24.32
2022-08-17T07:24:59.495Z,24.36
2022-08-17T07:25:46.680Z,24.40
2022-08-17T07:26:33.531Z,24.35
2022-08-17T07:27:22.974Z,24.39
2022-08-17T07:28:09.618Z,24.39
2022-08-17T07:28:56.503Z,24.36
2022-08-17T07:29:50.421Z,24.36
2022-08-17T07:30:47.337Z,24.32
2022-08-17T07:31:34.564Z,24.45
2022-08-17T07:32:26.273Z,24.46
2022-08-17T07:33:20.205Z,24.57
2022-08-17T07:34:14.314Z,24.70
2022-08-17T07:35:23.106Z,24.95
2022-08-17T07:36:30.218Z,24.96
2022-08-17T07:37:19.435Z,25.09
2022-08-17T07:38:24.732Z,25.36
2022-08-17T07:39:27.746Z,25.53
2022-08-17T07:40:26.839Z,25.56
2022-08-17T07:41:13.784Z,25.33
2022-08-17T07:42:04.829Z,25.12
2022-08-17T07:43:22.244Z,24.97
2022-08-17T07:44:13.466Z,24.88
2022-08-17T07:45:22.932Z,25.03
2022-08-17T07:46:53.799Z,25.10
2022-08-17T07:47:59.095Z,25.19
2022-08-17T07:48:50.675Z,25.28
2022-08-17T07:49:41.455Z,25.33
2022-08-17T07:50:29.583Z,25.28
2022-08-17T07:51:31.144Z,25.26
2022-08-17T07:52:50.797Z,25.23
2022-08-17T07:53:38.952Z,25.29
2022-08-17T07:54:35.616Z,25.18
2022-08-17T07:55:31.512Z,25.14
2022-08-17T07:56:38.204Z,24.99
2022-08-17T07:57:34.139Z,24.84
2022-08-17T07:58:23.734Z,24.86
2022-08-17T07:59:17.959Z,24.76
2022-08-17T08:00:19.341Z,24.66
2022-08-17T08:01:15.462Z,24.47
2022-08-17T08:02:16.991Z,24.34
2022-08-17T08:03:15.906Z,24.42
2022-08-17T08:04:03.381Z,24.40
2022-08-17T08:05:30.682Z,24.45
2022-08-17T08:06:27.872Z,24.58
2022-08-17T08:07:17.359Z,24.62
2022-08-17T08:08:18.567Z,24.64
2022-08-17T08:09:05.045Z,24.71
2022-08-17T08:10:04.592Z,24.74
2022-08-17T08:11:06.110Z,24.76
2022-08-17T08:11:52.867Z,24.91
2022-08-17T08:12:41.764Z,25.04
2022-08-17T08:13:30.144Z,25.01
2022-08-17T08:14:28.519Z,24.99
2022-08-17T08:15:18.659Z,25.02
2022-08-17T08:16:17.019Z,24.98
2022-08-17T08:17:09.418Z,25.02
2022-08-17T08:18:02.898Z,24.94
2022-08-17T08:18:56.859Z,25.13
2022-08-17T08:19:45.422Z,25.10
2022-08-17T08:20:53.464Z,25.03
2022-08-17T08:22:05.976Z,24.94
2022-08-17T08:23:06.116Z,24.82
2022-08-17T08:24:00.118Z,24.69
2022-08-17T08:25:07.871Z,24.71
2022-08-17T08:26:27.385Z,24.64
2022-08-17T08:27:31.217Z,24.61
2022-08-17T08:28:37.011Z,24.67
2022-08-17T08:29:55.253Z,24.66
2022-08-17T08:30:49.137Z,24.51
2022-08-17T08:31:50.803Z,24.55
2022-08-17T08:33:10.487Z,24.26
2022-08-17T08:34:49.731Z,24.28
2022-08-17T08:35:53.765Z,24.29
2022-08-17T08:37:16.008Z,24.10
2022-08-17T08:38:38.487Z,24.08
2022-08-17T08:39:42.058Z,24.05
2022-08-17T08:41:12.660Z,24.06
2022-08-17T08:42:13.114Z,24.03
2022-08-17T08:43:52.229Z,24.07
2022-08-17T08:45:05.061Z,24.00
2022-08-17T08:46:10.238Z,24.16
2022-08-17T08:47:19.411Z,24.25
2022-08-17T08:48:52.816Z,24.19
2022-08-17T08:50:03.865Z,24.15
2022-08-17T08:51:05.155Z,24.20
2022-08-17T08:51:56.015Z,24.12
2022-08-17T08:53:10.412Z,24.08
2022-08-17T08:54:35.052Z,24.04
2022-08-17T08:55:32.397Z,24.01
2022-08-17T08:56:53.777Z,23.99
2022-08-17T08:58:00.639Z,24.08
2022-08-17T08:59:25.807Z,24.08
2022-08-17T09:00:20.045Z,23.94
2022-08-17T09:01:20.827Z,23.82
2022-08-17T09:02:42.989Z,23.85
2022-08-17T09:04:06.728Z,23.86
2022-08-17T09:05:38.162Z,23.80
2022-08-17T09:06:51.100Z,23.92
2022-08-17T09:07:49.768Z,23.97
2022-08-17T09:08:59.510Z,24.05
2022-08-17T09:10:07.097Z,24.21
2022-08-17T09:11:00.537Z,24.16
2022-08-17T09:12:05.091Z,24.10
2022-08-17T09:13:18.746Z,24.18
2022-08-17T09:14:21.736Z,24.37
2022-08-17T09:15:33.438Z,24.38
2022-08-17T09:16:29.753Z,24.35
2022-08-17T09:17:23.062Z,24.28
2022-08-17T09:19:00.248Z,24.28
2022-08-17T09:19:39.040Z,24.30
2022-08-17T09:20:46.633Z,24.43
2022-08-17T09:22:19.132Z,24.31
2022-08-17T09:23:13.755Z,24.49
2022-08-17T09:24:20.779Z,24.55
2022-08-17T09:25:12.544Z,24.33
2022-08-17T09:26:23.939Z,24.19
2022-08-17T09:27:19.960Z,24.09
2022-08-17T09:28:19.093Z,24.12
2022-08-17T09:29:12.718Z,24.23
2022-08-17T09:30:06.821Z,24.39
2022-08-17T09:31:04.158Z,24.36
2022-08-17T09:32:01.517Z,24.38
2022-08-17T09:32:56.285Z,24.37
2022-08-17T09:33:46.655Z,24.39
2022-08-17T09:34:49.645Z,24.37
2022-08-17T09:35:44.597Z,24.44
2022-08-17T09:36:40.491Z,24.56
2022-08-17T09:37:48.933Z,24.63
2022-08-17T09:38:52.613Z,24.40
2022-08-17T09:39:50.819Z,24.55
2022-08-17T09:41:09.087Z,24.41
2022-08-17T09:42:13.493Z,24.51
2022-08-17T09:43:20.815Z,24.44
2022-08-17T09:44:36.713Z,24.50
2022-08-17T09:45:37.652Z,24.40
2022-08-17T09:46:48.423Z,24.35
2022-08-17T09:47:45.848Z,24.24
2022-08-17T09:49:09.688Z,24.09
2022-08-17T09:51:05.453Z,23.94
2022-08-17T09:51:36.707Z,23.93
2022-08-17T09:52:26.536Z,23.91
2022-08-17T09:53:13.535Z,23.97
2022-08-17T09:54:21.365Z,23.98
2022-08-17T09:55:10.257Z,23.99
2022-08-17T09:56:19.480Z,24.01
2022-08-17T09:57:31.639Z,23.79
2022-08-17T09:58:56.427Z,23.73
2022-08-17T10:00:17.275Z,23.74
2022-08-17T10:01:25.521Z,23.73
2022-08-17T10:02:42.678Z,23.79
2022-08-17T10:03:41.448Z,23.74
2022-08-17T10:04:56.329Z,23.73
2022-08-17T10:06:07.795Z,23.64
2022-08-17T10:07:14.678Z,23.61
2022-08-17T10:08:22.817Z,23.54
2022-08-17T10:09:42.190Z,23.69
2022-08-17T10:10:43.372Z,23.71
2022-08-17T10:12:11.305Z,23.52
2022-08-17T10:13:18.406Z,23.54
2022-08-17T10:14:37.735Z,23.51
2022-08-17T10:15:36.694Z,23.37
2022-08-17T10:16:55.804Z,23.12
2022-08-17T10:18:07.355Z,22.95
2022-08-17T10:18:53.836Z,22.89
2022-08-17T10:20:08.828Z,22.96
2022-08-17T10:21:26.207Z,22.99
2022-08-17T10:22:43.623Z,23.07
2022-08-17T10:23:49.828Z,23.28
2022-08-17T10:25:23.227Z,23.31
2022-08-17T10:26:20.641Z,23.40
2022-08-17T10:27:16.128Z,23.56
2022-08-17T10:28:14.244Z,23.63
2022-08-17T10:29:22.787Z,23.73
2022-08-17T10:30:15.701Z,23.88
2022-08-17T10:32:25.769Z,23.92
2022-08-17T10:33:34.840Z,23.95
2022-08-17T10:34:41.106Z,24.04
2022-08-17T10:35:35.007Z,24.18
2022-08-17T10:36:37.986Z,24.08
2022-08-17T10:37:36.558Z,24.18
2022-08-17T10:38:45.910Z,24.27
2022-08-17T10:40:20.674Z,24.30
2022-08-17T10:41:28.662Z,24.26
2022-08-17T10:42:48.886Z,24.51
2022-08-17T10:43:44.562Z,24.50
2022-08-17T10:45:02.239Z,24.58
2022-08-17T10:46:10.600Z,24.67
2022-08-17T10:47:14.550Z,24.64
2022-08-17T10:48:25.993Z,24.68
2022-08-17T10:49:22.036Z,24.68
2022-08-17T10:50:47.411Z,24.68
2022-08-17T10:51:38.427Z,24.78
2022-08-17T10:52:45.985Z,24.85
2022-08-17T10:53:32.545Z,24.97
2022-08-17T10:54:25.132Z,25.11
2022-08-17T10:55:18.102Z,25.26
2022-08-17T10:56:13.802Z,25.59
2022-08-17T10:57:03.182Z,25.69
2022-08-17T10:57:50.485Z,25.80
2022-08-17T10:58:55.512Z,25.99
2022-08-17T10:59:42.134Z,25.92
2022-08-17T11:00:41.001Z,26.10
2022-08-17T11:01:34.122Z,26.30
2022-08-17T11:02:38.133Z,26.56
2022-08-17T11:03:26.528Z,26.85
2022-08-17T11:04:54.008Z,27.10
2022-08-17T11:05:55.867Z,27.27
2022-08-17T11:07:12.048Z,27.31
2022-08-17T11:08:37.591Z,27.18
2022-08-17T11:09:35.817Z,27.00
2022-08-17T11:10:57.902Z,26.80
2022-08-17T11:11:53.013Z,26.77
2022-08-17T11:13:01.948Z,26.75
2022-08-17T11:14:04.529Z,26.53
2022-08-17T11:15:03.533Z,26.32
2022-08-17T11:16:17.428Z,26.38
2022-08-17T11:17:19.132Z,26.25
2022-08-17T11:18:41.723Z,26.28
2022-08-17T11:20:08.151Z,26.21
2022-08-17T11:21:09.821Z,26.05
2022-08-17T11:22:17.369Z,25.99
2022-08-17T11:23:27.583Z,25.93
2022-08-17T11:24:19.267Z,25.77
2022-08-17T11:25:18.804Z,25.79
2022-08-17T11:26:26.177Z,25.84
2022-08-17T11:27:31.297Z,26.18
2022-08-17T11:28:24.767Z,26.37
2022-08-17T11:29:51.979Z,26.24
2022-08-17T11:30:48.721Z,26.23
2022-08-17T11:31:41.345Z,26.46
2022-08-17T11:32:54.525Z,26.44
2022-08-17T11:33:41.404Z,26.55
2022-08-17T11:34:32.345Z,26.73
2022-08-17T11:35:21.949Z,26.77
2022-08-17T11:36:14.501Z,27.03
2022-08-17T11:37:28.980Z,27.27
2022-08-17T11:38:41.665Z,27.35
2022-08-17T11:39:44.091Z,27.48
2022-08-17T11:40:51.326Z,27.58
2022-08-17T11:42:20.276Z,27.89
2022-08-17T11:43:19.414Z,27.80
2022-08-17T11:44:24.548Z,27.93
2022-08-17T11:45:39.032Z,27.87
2022-08-17T11:47:07.135Z,27.79
2022-08-17T11:48:36.820Z,27.99
2022-08-17T11:50:27.681Z,28.11
2022-08-17T11:51:34.816Z,28.15
2022-08-17T11:52:42.215Z,28.08
2022-08-17T11:53:38.533Z,28.01
2022-08-17T11:54:33.759Z,27.88
2022-08-17T11:55:38.414Z,27.78
2022-08-17T11:56:38.289Z,28.12
2022-08-17T11:57:27.616Z,27.91
2022-08-17T11:58:44.216Z,27.62
2022-08-17T11:59:37.026Z,27.66
2022-08-17T12:00:42.061Z,27.57
2022-08-17T12:01:31.434Z,27.76
2022-08-17T12:02:38.639Z,28.06
2022-08-17T12:03:34.211Z,28.49
2022-08-17T12:04:21.760Z,28.77
2022-08-17T12:05:14.230Z,29.13
2022-08-17T12:06:17.503Z,29.05
2022-08-17T12:07:20.489Z,28.74
2022-08-17T12:08:19.617Z,28.84
2022-08-17T12:09:30.929Z,28.78
2022-08-17T12:10:52.779Z,28.78
2022-08-17T12:12:11.076Z,28.78
2022-08-17T12:12:56.106Z,28.98
2022-08-17T12:13:47.622Z,29.03
2022-08-17T12:15:05.752Z,28.86